sensor_id;sensor_type;location;lat;lon;timestamp;temperature;humidity
69359;HTU21D;56520;49.066;8.660;2022-10-16T00:00:28;15.65;95.72
69359;HTU21D;56520;49.066;8.660;2022-10-16T00:02:53;15.65;95.74
69359;HTU21D;56520;49.066;8.660;2022-10-16T00:05:19;15.63;95.77
69359;HTU21D;56520;49.066;8.660;2022-10-16T00:07:44;15.63;95.78
69359;HTU21D;56520;49.066;8.660;2022-10-16T00:10:10;15.65;95.80
69359;HTU21D;56520;49.066;8.660;2022-10-16T00:12:35;15.69;95.76
69359;HTU21D;56520;49.066;8.660;2022-10-16T00:15:00;15.70;95.77
69359;HTU21D;56520;49.066;8.660;2022-10-16T00:17:26;15.71;95.74
69359;HTU21D;56520;49.066;8.660;2022-10-16T00:19:51;15.72;95.73
69359;HTU21D;56520;49.066;8.660;2022-10-16T00:22:17;15.75;95.73
69359;HTU21D;56520;49.066;8.660;2022-10-16T00:24:42;15.77;95.72
69359;HTU21D;56520;49.066;8.660;2022-10-16T00:27:07;15.77;95.72
69359;HTU21D;56520;49.066;8.660;2022-10-16T00:29:33;15.77;95.72
69359;HTU21D;56520;49.066;8.660;2022-10-16T00:31:58;15.76;95.73
69359;HTU21D;56520;49.066;8.660;2022-10-16T00:34:23;15.75;95.75
69359;HTU21D;56520;49.066;8.660;2022-10-16T00:36:49;15.74;95.78
69359;HTU21D;56520;49.066;8.660;2022-10-16T00:39:14;15.73;95.80
69359;HTU21D;56520;49.066;8.660;2022-10-16T00:41:40;15.72;95.83
69359;HTU21D;56520;49.066;8.660;2022-10-16T00:47:11;15.73;95.95
69359;HTU21D;56520;49.066;8.660;2022-10-16T00:49:38;15.71;95.96
69359;HTU21D;56520;49.066;8.660;2022-10-16T00:52:05;15.71;95.98
69359;HTU21D;56520;49.066;8.660;2022-10-16T00:54:31;15.70;96.00
69359;HTU21D;56520;49.066;8.660;2022-10-16T00:57:00;15.71;95.99
69359;HTU21D;56520;49.066;8.660;2022-10-16T01:01:54;15.71;95.99
69359;HTU21D;56520;49.066;8.660;2022-10-16T01:04:19;15.72;96.00
69359;HTU21D;56520;49.066;8.660;2022-10-16T01:09:35;15.74;96.01
69359;HTU21D;56520;49.066;8.660;2022-10-16T01:12:18;15.75;96.00
69359;HTU21D;56520;49.066;8.660;2022-10-16T01:17:35;15.82;95.90
69359;HTU21D;56520;49.066;8.660;2022-10-16T01:20:10;15.84;95.85
69359;HTU21D;56520;49.066;8.660;2022-10-16T01:22:46;15.84;95.82
69359;HTU21D;56520;49.066;8.660;2022-10-16T01:25:31;15.86;95.75
69359;HTU21D;56520;49.066;8.660;2022-10-16T01:28:02;15.84;95.74
69359;HTU21D;56520;49.066;8.660;2022-10-16T01:30:32;15.82;95.73
69359;HTU21D;56520;49.066;8.660;2022-10-16T01:33:00;15.82;95.74
69359;HTU21D;56520;49.066;8.660;2022-10-16T01:35:41;15.81;95.78
69359;HTU21D;56520;49.066;8.660;2022-10-16T01:38:23;15.80;95.81
69359;HTU21D;56520;49.066;8.660;2022-10-16T01:40:55;15.78;95.84
69359;HTU21D;56520;49.066;8.660;2022-10-16T01:43:28;15.80;95.86
69359;HTU21D;56520;49.066;8.660;2022-10-16T01:45:57;15.77;95.85
69359;HTU21D;56520;49.066;8.660;2022-10-16T01:48:24;15.76;95.88
69359;HTU21D;56520;49.066;8.660;2022-10-16T01:50:58;15.74;95.91
69359;HTU21D;56520;49.066;8.660;2022-10-16T01:53:25;15.73;95.97
69359;HTU21D;56520;49.066;8.660;2022-10-16T01:55:52;15.72;96.03
69359;HTU21D;56520;49.066;8.660;2022-10-16T01:58:19;15.70;96.08
69359;HTU21D;56520;49.066;8.660;2022-10-16T02:00:46;15.69;96.10
69359;HTU21D;56520;49.066;8.660;2022-10-16T02:03:14;15.68;96.16
69359;HTU21D;56520;49.066;8.660;2022-10-16T02:05:49;15.68;96.19
69359;HTU21D;56520;49.066;8.660;2022-10-16T02:08:16;15.68;96.23
69359;HTU21D;56520;49.066;8.660;2022-10-16T02:10:42;15.67;96.24
69359;HTU21D;56520;49.066;8.660;2022-10-16T02:13:15;15.67;96.25
69359;HTU21D;56520;49.066;8.660;2022-10-16T02:15:42;15.66;96.26
69359;HTU21D;56520;49.066;8.660;2022-10-16T02:18:08;15.65;96.26
69359;HTU21D;56520;49.066;8.660;2022-10-16T02:20:41;15.62;96.26
69359;HTU21D;56520;49.066;8.660;2022-10-16T02:23:12;15.62;96.27
69359;HTU21D;56520;49.066;8.660;2022-10-16T02:25:44;15.59;96.28
69359;HTU21D;56520;49.066;8.660;2022-10-16T02:28:28;15.57;96.29
69359;HTU21D;56520;49.066;8.660;2022-10-16T02:31:01;15.54;96.33
69359;HTU21D;56520;49.066;8.660;2022-10-16T02:33:29;15.51;96.37
69359;HTU21D;56520;49.066;8.660;2022-10-16T02:35:56;15.51;96.40
69359;HTU21D;56520;49.066;8.660;2022-10-16T02:38:22;15.48;96.44
69359;HTU21D;56520;49.066;8.660;2022-10-16T02:40:48;15.48;96.46
69359;HTU21D;56520;49.066;8.660;2022-10-16T02:43:14;15.49;96.46
69359;HTU21D;56520;49.066;8.660;2022-10-16T02:45:40;15.48;96.46
69359;HTU21D;56520;49.066;8.660;2022-10-16T02:48:06;15.47;96.46
69359;HTU21D;56520;49.066;8.660;2022-10-16T02:50:40;15.44;96.46
69359;HTU21D;56520;49.066;8.660;2022-10-16T02:53:05;15.41;96.49
69359;HTU21D;56520;49.066;8.660;2022-10-16T02:55:31;15.40;96.51
69359;HTU21D;56520;49.066;8.660;2022-10-16T02:57:56;15.39;96.53
69359;HTU21D;56520;49.066;8.660;2022-10-16T03:00:22;15.37;96.56
69359;HTU21D;56520;49.066;8.660;2022-10-16T03:02:47;15.36;96.58
69359;HTU21D;56520;49.066;8.660;2022-10-16T03:05:13;15.36;96.57
69359;HTU21D;56520;49.066;8.660;2022-10-16T03:07:39;15.34;96.57
69359;HTU21D;56520;49.066;8.660;2022-10-16T03:10:05;15.32;96.55
69359;HTU21D;56520;49.066;8.660;2022-10-16T03:12:30;15.33;96.55
69359;HTU21D;56520;49.066;8.660;2022-10-16T03:14:56;15.33;96.57
69359;HTU21D;56520;49.066;8.660;2022-10-16T03:17:22;15.32;96.55
69359;HTU21D;56520;49.066;8.660;2022-10-16T03:19:48;15.31;96.56
69359;HTU21D;56520;49.066;8.660;2022-10-16T03:22:17;15.31;96.60
69359;HTU21D;56520;49.066;8.660;2022-10-16T03:24:43;15.32;96.58
69359;HTU21D;56520;49.066;8.660;2022-10-16T03:27:08;15.30;96.58
69359;HTU21D;56520;49.066;8.660;2022-10-16T03:29:34;15.29;96.60
69359;HTU21D;56520;49.066;8.660;2022-10-16T03:32:00;15.27;96.63
69359;HTU21D;56520;49.066;8.660;2022-10-16T03:34:25;15.26;96.66
69359;HTU21D;56520;49.066;8.660;2022-10-16T03:36:51;15.25;96.69
69359;HTU21D;56520;49.066;8.660;2022-10-16T03:39:19;15.23;96.72
69359;HTU21D;56520;49.066;8.660;2022-10-16T03:41:44;15.19;96.76
69359;HTU21D;56520;49.066;8.660;2022-10-16T03:44:11;15.19;96.79
69359;HTU21D;56520;49.066;8.660;2022-10-16T03:46:37;15.16;96.83
69359;HTU21D;56520;49.066;8.660;2022-10-16T03:49:02;15.13;96.87
69359;HTU21D;56520;49.066;8.660;2022-10-16T03:51:27;15.11;96.92
69359;HTU21D;56520;49.066;8.660;2022-10-16T03:53:53;15.11;96.97
69359;HTU21D;56520;49.066;8.660;2022-10-16T03:56:18;15.11;97.00
69359;HTU21D;56520;49.066;8.660;2022-10-16T03:58:43;15.11;97.04
69359;HTU21D;56520;49.066;8.660;2022-10-16T04:01:09;15.10;97.07
69359;HTU21D;56520;49.066;8.660;2022-10-16T04:03:34;15.10;97.08
69359;HTU21D;56520;49.066;8.660;2022-10-16T04:06:06;15.09;97.10
69359;HTU21D;56520;49.066;8.660;2022-10-16T04:08:31;15.08;97.10
69359;HTU21D;56520;49.066;8.660;2022-10-16T04:11:00;15.06;97.11
69359;HTU21D;56520;49.066;8.660;2022-10-16T04:13:25;15.04;97.13
69359;HTU21D;56520;49.066;8.660;2022-10-16T04:15:51;15.03;97.13
69359;HTU21D;56520;49.066;8.660;2022-10-16T04:18:16;15.03;97.14
69359;HTU21D;56520;49.066;8.660;2022-10-16T04:20:41;15.02;97.13
69359;HTU21D;56520;49.066;8.660;2022-10-16T04:23:07;15.00;97.13
69359;HTU21D;56520;49.066;8.660;2022-10-16T04:25:32;14.99;97.15
69359;HTU21D;56520;49.066;8.660;2022-10-16T04:27:58;14.98;97.15
69359;HTU21D;56520;49.066;8.660;2022-10-16T04:30:24;14.95;97.18
69359;HTU21D;56520;49.066;8.660;2022-10-16T04:32:51;14.94;97.20
69359;HTU21D;56520;49.066;8.660;2022-10-16T04:35:18;14.93;97.23
69359;HTU21D;56520;49.066;8.660;2022-10-16T04:37:43;14.92;97.26
69359;HTU21D;56520;49.066;8.660;2022-10-16T04:40:09;14.92;97.29
69359;HTU21D;56520;49.066;8.660;2022-10-16T04:42:34;14.92;97.32
69359;HTU21D;56520;49.066;8.660;2022-10-16T04:45:00;14.89;97.33
69359;HTU21D;56520;49.066;8.660;2022-10-16T04:47:25;14.91;97.35
69359;HTU21D;56520;49.066;8.660;2022-10-16T04:49:50;14.92;97.35
69359;HTU21D;56520;49.066;8.660;2022-10-16T04:52:16;14.91;97.36
69359;HTU21D;56520;49.066;8.660;2022-10-16T04:54:42;14.91;97.35
69359;HTU21D;56520;49.066;8.660;2022-10-16T04:57:09;14.93;97.35
69359;HTU21D;56520;49.066;8.660;2022-10-16T04:59:35;14.91;97.34
69359;HTU21D;56520;49.066;8.660;2022-10-16T05:02:01;14.92;97.32
69359;HTU21D;56520;49.066;8.660;2022-10-16T05:04:26;14.91;97.32
69359;HTU21D;56520;49.066;8.660;2022-10-16T05:06:51;14.91;97.31
69359;HTU21D;56520;49.066;8.660;2022-10-16T05:09:17;14.89;97.32
69359;HTU21D;56520;49.066;8.660;2022-10-16T05:11:42;14.88;97.32
69359;HTU21D;56520;49.066;8.660;2022-10-16T05:14:08;14.89;97.32
69359;HTU21D;56520;49.066;8.660;2022-10-16T05:16:33;14.88;97.34
69359;HTU21D;56520;49.066;8.660;2022-10-16T05:18:58;14.87;97.34
69359;HTU21D;56520;49.066;8.660;2022-10-16T05:21:24;14.88;97.34
69359;HTU21D;56520;49.066;8.660;2022-10-16T05:23:49;14.86;97.35
69359;HTU21D;56520;49.066;8.660;2022-10-16T05:26:15;14.86;97.35
69359;HTU21D;56520;49.066;8.660;2022-10-16T05:28:40;14.86;97.36
69359;HTU21D;56520;49.066;8.660;2022-10-16T05:31:07;14.85;97.36
69359;HTU21D;56520;49.066;8.660;2022-10-16T05:33:33;14.85;97.36
69359;HTU21D;56520;49.066;8.660;2022-10-16T05:36:06;14.85;97.36
69359;HTU21D;56520;49.066;8.660;2022-10-16T05:38:36;14.87;97.37
69359;HTU21D;56520;49.066;8.660;2022-10-16T05:41:02;14.89;97.36
69359;HTU21D;56520;49.066;8.660;2022-10-16T05:43:29;14.89;97.35
69359;HTU21D;56520;49.066;8.660;2022-10-16T05:45:59;14.89;97.34
69359;HTU21D;56520;49.066;8.660;2022-10-16T05:48:26;14.89;97.32
69359;HTU21D;56520;49.066;8.660;2022-10-16T05:51:03;14.88;97.31
69359;HTU21D;56520;49.066;8.660;2022-10-16T05:53:31;14.89;97.31
69359;HTU21D;56520;49.066;8.660;2022-10-16T05:55:57;14.88;97.31
69359;HTU21D;56520;49.066;8.660;2022-10-16T05:58:23;14.91;97.30
69359;HTU21D;56520;49.066;8.660;2022-10-16T06:00:54;14.91;97.29
69359;HTU21D;56520;49.066;8.660;2022-10-16T06:03:19;14.92;97.28
69359;HTU21D;56520;49.066;8.660;2022-10-16T06:05:44;14.93;97.28
69359;HTU21D;56520;49.066;8.660;2022-10-16T06:08:10;14.91;97.26
69359;HTU21D;56520;49.066;8.660;2022-10-16T06:10:35;14.89;97.27
69359;HTU21D;56520;49.066;8.660;2022-10-16T06:13:01;14.87;97.28
69359;HTU21D;56520;49.066;8.660;2022-10-16T06:15:26;14.87;97.30
69359;HTU21D;56520;49.066;8.660;2022-10-16T06:17:51;14.87;97.30
69359;HTU21D;56520;49.066;8.660;2022-10-16T06:20:17;14.87;97.31
69359;HTU21D;56520;49.066;8.660;2022-10-16T06:22:42;14.87;97.29
69359;HTU21D;56520;49.066;8.660;2022-10-16T06:25:08;14.87;97.29
69359;HTU21D;56520;49.066;8.660;2022-10-16T06:27:33;14.88;97.27
69359;HTU21D;56520;49.066;8.660;2022-10-16T06:29:58;14.89;97.23
69359;HTU21D;56520;49.066;8.660;2022-10-16T06:32:24;14.89;97.22
69359;HTU21D;56520;49.066;8.660;2022-10-16T06:34:49;14.88;97.20
69359;HTU21D;56520;49.066;8.660;2022-10-16T06:37:15;14.88;97.19
69359;HTU21D;56520;49.066;8.660;2022-10-16T06:39:40;14.91;97.20
69359;HTU21D;56520;49.066;8.660;2022-10-16T06:42:05;14.93;97.20
69359;HTU21D;56520;49.066;8.660;2022-10-16T06:44:31;14.93;97.20
69359;HTU21D;56520;49.066;8.660;2022-10-16T06:46:56;14.95;97.20
69359;HTU21D;56520;49.066;8.660;2022-10-16T06:49:21;14.96;97.20
69359;HTU21D;56520;49.066;8.660;2022-10-16T06:51:48;14.99;97.22
69359;HTU21D;56520;49.066;8.660;2022-10-16T06:54:15;15.00;97.21
69359;HTU21D;56520;49.066;8.660;2022-10-16T06:56:40;15.01;97.20
69359;HTU21D;56520;49.066;8.660;2022-10-16T06:59:05;15.02;97.20
69359;HTU21D;56520;49.066;8.660;2022-10-16T07:01:32;15.04;97.19
69359;HTU21D;56520;49.066;8.660;2022-10-16T07:03:58;15.07;97.19
69359;HTU21D;56520;49.066;8.660;2022-10-16T07:06:24;15.09;97.16
69359;HTU21D;56520;49.066;8.660;2022-10-16T07:08:51;15.12;97.13
69359;HTU21D;56520;49.066;8.660;2022-10-16T07:11:19;15.16;97.11
69359;HTU21D;56520;49.066;8.660;2022-10-16T07:13:46;15.23;97.08
69359;HTU21D;56520;49.066;8.660;2022-10-16T07:16:15;15.29;97.03
69359;HTU21D;56520;49.066;8.660;2022-10-16T07:18:41;15.34;96.98
69359;HTU21D;56520;49.066;8.660;2022-10-16T07:21:34;15.45;96.91
69359;HTU21D;56520;49.066;8.660;2022-10-16T07:24:10;15.55;96.82
69359;HTU21D;56520;49.066;8.660;2022-10-16T07:26:37;15.63;96.68
69359;HTU21D;56520;49.066;8.660;2022-10-16T07:29:05;15.72;96.56
69359;HTU21D;56520;49.066;8.660;2022-10-16T07:31:30;15.78;96.25
69359;HTU21D;56520;49.066;8.660;2022-10-16T07:33:58;15.82;96.14
69359;HTU21D;56520;49.066;8.660;2022-10-16T07:36:24;15.86;96.04
69359;HTU21D;56520;49.066;8.660;2022-10-16T07:38:49;15.88;95.93
69359;HTU21D;56520;49.066;8.660;2022-10-16T07:41:17;15.93;95.88
69359;HTU21D;56520;49.066;8.660;2022-10-16T07:43:47;15.98;95.78
69359;HTU21D;56520;49.066;8.660;2022-10-16T07:46:13;16.02;95.63
69359;HTU21D;56520;49.066;8.660;2022-10-16T07:48:39;16.06;95.52
69359;HTU21D;56520;49.066;8.660;2022-10-16T07:51:06;16.11;95.43
69359;HTU21D;56520;49.066;8.660;2022-10-16T07:53:32;16.16;95.26
69359;HTU21D;56520;49.066;8.660;2022-10-16T07:56:03;16.21;95.02
69359;HTU21D;56520;49.066;8.660;2022-10-16T07:58:28;16.26;94.85
69359;HTU21D;56520;49.066;8.660;2022-10-16T08:00:54;16.30;94.70
69359;HTU21D;56520;49.066;8.660;2022-10-16T08:03:20;16.32;94.56
69359;HTU21D;56520;49.066;8.660;2022-10-16T08:05:45;16.35;94.43
69359;HTU21D;56520;49.066;8.660;2022-10-16T08:08:15;16.40;94.23
69359;HTU21D;56520;49.066;8.660;2022-10-16T08:10:41;16.44;94.13
69359;HTU21D;56520;49.066;8.660;2022-10-16T08:13:06;16.48;94.03
69359;HTU21D;56520;49.066;8.660;2022-10-16T08:15:32;16.55;93.95
69359;HTU21D;56520;49.066;8.660;2022-10-16T08:17:59;16.61;93.87
69359;HTU21D;56520;49.066;8.660;2022-10-16T08:20:25;16.71;93.78
69359;HTU21D;56520;49.066;8.660;2022-10-16T08:22:51;16.81;93.67
69359;HTU21D;56520;49.066;8.660;2022-10-16T08:25:16;16.90;93.49
69359;HTU21D;56520;49.066;8.660;2022-10-16T08:27:42;17.00;93.35
69359;HTU21D;56520;49.066;8.660;2022-10-16T08:30:08;17.19;93.34
69359;HTU21D;56520;49.066;8.660;2022-10-16T08:32:34;17.43;93.00
69359;HTU21D;56520;49.066;8.660;2022-10-16T08:34:59;17.60;92.39
69359;HTU21D;56520;49.066;8.660;2022-10-16T08:37:24;17.66;91.96
69359;HTU21D;56520;49.066;8.660;2022-10-16T08:39:50;17.72;91.73
69359;HTU21D;56520;49.066;8.660;2022-10-16T08:50:18;17.92;90.95
69359;HTU21D;56520;49.066;8.660;2022-10-16T08:52:46;18.03;90.78
69359;HTU21D;56520;49.066;8.660;2022-10-16T08:57:58;18.25;90.06
69359;HTU21D;56520;49.066;8.660;2022-10-16T09:00:24;18.34;89.81
69359;HTU21D;56520;49.066;8.660;2022-10-16T09:03:13;18.43;89.67
69359;HTU21D;56520;49.066;8.660;2022-10-16T09:05:54;18.59;89.37
69359;HTU21D;56520;49.066;8.660;2022-10-16T09:11:37;19.12;87.74
69359;HTU21D;56520;49.066;8.660;2022-10-16T09:17:03;19.52;86.54
69359;HTU21D;56520;49.066;8.660;2022-10-16T09:19:35;19.83;86.25
69359;HTU21D;56520;49.066;8.660;2022-10-16T09:22:11;20.11;85.79
69359;HTU21D;56520;49.066;8.660;2022-10-16T09:24:37;20.39;85.19
69359;HTU21D;56520;49.066;8.660;2022-10-16T09:27:03;20.56;84.71
69359;HTU21D;56520;49.066;8.660;2022-10-16T09:29:28;20.46;83.30
69359;HTU21D;56520;49.066;8.660;2022-10-16T09:31:55;20.25;81.91
69359;HTU21D;56520;49.066;8.660;2022-10-16T09:34:36;20.09;82.97
69359;HTU21D;56520;49.066;8.660;2022-10-16T09:37:09;19.98;83.39
69359;HTU21D;56520;49.066;8.660;2022-10-16T09:39:57;19.86;83.68
69359;HTU21D;56520;49.066;8.660;2022-10-16T09:42:30;19.79;82.91
69359;HTU21D;56520;49.066;8.660;2022-10-16T09:44:56;19.69;82.91
69359;HTU21D;56520;49.066;8.660;2022-10-16T09:47:29;19.62;82.91
69359;HTU21D;56520;49.066;8.660;2022-10-16T09:50:01;19.55;83.00
69359;HTU21D;56520;49.066;8.660;2022-10-16T09:52:30;19.54;82.91
69359;HTU21D;56520;49.066;8.660;2022-10-16T09:57:23;20.00;82.45
69359;HTU21D;56520;49.066;8.660;2022-10-16T09:59:56;20.25;82.08
69359;HTU21D;56520;49.066;8.660;2022-10-16T10:02:34;20.29;81.33
69359;HTU21D;56520;49.066;8.660;2022-10-16T10:05:01;20.40;81.39
69359;HTU21D;56520;49.066;8.660;2022-10-16T10:07:42;20.75;80.72
69359;HTU21D;56520;49.066;8.660;2022-10-16T10:10:37;21.04;77.84
69359;HTU21D;56520;49.066;8.660;2022-10-16T10:13:19;21.08;77.20
69359;HTU21D;56520;49.066;8.660;2022-10-16T10:15:45;21.07;77.38
69359;HTU21D;56520;49.066;8.660;2022-10-16T10:18:21;21.00;77.86
69359;HTU21D;56520;49.066;8.660;2022-10-16T10:21:02;20.85;77.82
69359;HTU21D;56520;49.066;8.660;2022-10-16T10:23:29;20.61;77.76
69359;HTU21D;56520;49.066;8.660;2022-10-16T10:26:20;20.43;78.64
69359;HTU21D;56520;49.066;8.660;2022-10-16T10:31:50;20.44;79.30
69359;HTU21D;56520;49.066;8.660;2022-10-16T10:34:47;20.26;77.78
69359;HTU21D;56520;49.066;8.660;2022-10-16T10:37:35;20.18;78.59
69359;HTU21D;56520;49.066;8.660;2022-10-16T10:42:54;20.59;77.66
69359;HTU21D;56520;49.066;8.660;2022-10-16T10:45:46;20.88;77.94
69359;HTU21D;56520;49.066;8.660;2022-10-16T10:48:54;21.19;77.76
69359;HTU21D;56520;49.066;8.660;2022-10-16T10:56:51;21.96;72.73
69359;HTU21D;56520;49.066;8.660;2022-10-16T11:02:18;22.32;71.80
69359;HTU21D;56520;49.066;8.660;2022-10-16T11:07:32;22.43;71.83
69359;HTU21D;56520;49.066;8.660;2022-10-16T11:10:13;22.48;71.70
69359;HTU21D;56520;49.066;8.660;2022-10-16T11:12:44;22.36;71.45
69359;HTU21D;56520;49.066;8.660;2022-10-16T11:15:21;22.11;71.62
69359;HTU21D;56520;49.066;8.660;2022-10-16T11:18:04;21.84;70.64
69359;HTU21D;56520;49.066;8.660;2022-10-16T11:20:39;21.64;71.00
69359;HTU21D;56520;49.066;8.660;2022-10-16T11:25:31;21.46;72.06
69359;HTU21D;56520;49.066;8.660;2022-10-16T11:30:31;21.46;72.11
69359;HTU21D;56520;49.066;8.660;2022-10-16T11:41:22;21.64;69.35
69359;HTU21D;56520;49.066;8.660;2022-10-16T11:46:57;21.68;67.84
69359;HTU21D;56520;49.066;8.660;2022-10-16T11:49:25;21.63;69.20
69359;HTU21D;56520;49.066;8.660;2022-10-16T11:54:42;21.63;69.90
69359;HTU21D;56520;49.066;8.660;2022-10-16T11:57:31;21.63;70.24
69359;HTU21D;56520;49.066;8.660;2022-10-16T12:08:11;21.79;68.97
69359;HTU21D;56520;49.066;8.660;2022-10-16T12:10:39;21.85;68.97
69359;HTU21D;56520;49.066;8.660;2022-10-16T12:13:38;21.94;68.79
69359;HTU21D;56520;49.066;8.660;2022-10-16T12:18:39;22.10;67.84
69359;HTU21D;56520;49.066;8.660;2022-10-16T12:21:05;22.13;68.39
69359;HTU21D;56520;49.066;8.660;2022-10-16T12:26:11;22.07;68.74
69359;HTU21D;56520;49.066;8.660;2022-10-16T12:28:37;22.02;69.04
69359;HTU21D;56520;49.066;8.660;2022-10-16T12:31:09;21.91;69.26
69359;HTU21D;56520;49.066;8.660;2022-10-16T12:33:37;21.82;69.81
69359;HTU21D;56520;49.066;8.660;2022-10-16T12:36:16;21.78;70.13
69359;HTU21D;56520;49.066;8.660;2022-10-16T12:38:52;21.79;70.22
69359;HTU21D;56520;49.066;8.660;2022-10-16T12:41:27;21.79;70.39
69359;HTU21D;56520;49.066;8.660;2022-10-16T12:43:52;21.91;70.42
69359;HTU21D;56520;49.066;8.660;2022-10-16T12:48:44;22.14;70.16
69359;HTU21D;56520;49.066;8.660;2022-10-16T12:51:12;22.23;70.23
69359;HTU21D;56520;49.066;8.660;2022-10-16T12:53:45;22.25;70.32
69359;HTU21D;56520;49.066;8.660;2022-10-16T12:56:49;22.22;70.42
69359;HTU21D;56520;49.066;8.660;2022-10-16T13:09:47;21.78;68.21
69359;HTU21D;56520;49.066;8.660;2022-10-16T13:13:00;21.66;68.13
69359;HTU21D;56520;49.066;8.660;2022-10-16T13:18:19;21.45;68.78
69359;HTU21D;56520;49.066;8.660;2022-10-16T13:21:10;21.35;68.84
69359;HTU21D;56520;49.066;8.660;2022-10-16T13:23:44;21.25;69.56
69359;HTU21D;56520;49.066;8.660;2022-10-16T13:28:51;21.06;70.70
69359;HTU21D;56520;49.066;8.660;2022-10-16T13:31:22;20.96;71.25
69359;HTU21D;56520;49.066;8.660;2022-10-16T13:33:55;20.87;71.90
69359;HTU21D;56520;49.066;8.660;2022-10-16T13:36:26;20.77;72.48
69359;HTU21D;56520;49.066;8.660;2022-10-16T13:39:14;20.72;73.15
69359;HTU21D;56520;49.066;8.660;2022-10-16T13:41:40;20.71;73.67
69359;HTU21D;56520;49.066;8.660;2022-10-16T13:44:19;20.74;73.90
69359;HTU21D;56520;49.066;8.660;2022-10-16T13:46:45;20.71;74.38
69359;HTU21D;56520;49.066;8.660;2022-10-16T13:49:15;20.69;74.80
69359;HTU21D;56520;49.066;8.660;2022-10-16T13:51:42;20.66;74.94
69359;HTU21D;56520;49.066;8.660;2022-10-16T13:54:18;20.66;74.99
69359;HTU21D;56520;49.066;8.660;2022-10-16T13:56:43;20.68;74.99
69359;HTU21D;56520;49.066;8.660;2022-10-16T13:59:35;20.66;75.21
69359;HTU21D;56520;49.066;8.660;2022-10-16T14:02:14;20.63;75.55
69359;HTU21D;56520;49.066;8.660;2022-10-16T14:04:43;20.56;75.95
69359;HTU21D;56520;49.066;8.660;2022-10-16T14:07:15;20.50;76.37
69359;HTU21D;56520;49.066;8.660;2022-10-16T14:09:41;20.43;76.69
69359;HTU21D;56520;49.066;8.660;2022-10-16T14:12:10;20.40;76.89
69359;HTU21D;56520;49.066;8.660;2022-10-16T14:14:44;20.36;77.15
69359;HTU21D;56520;49.066;8.660;2022-10-16T14:17:31;20.33;77.29
69359;HTU21D;56520;49.066;8.660;2022-10-16T14:19:59;20.33;77.65
69359;HTU21D;56520;49.066;8.660;2022-10-16T14:22:35;20.26;78.05
69359;HTU21D;56520;49.066;8.660;2022-10-16T14:25:24;20.19;78.37
69359;HTU21D;56520;49.066;8.660;2022-10-16T14:30:27;20.04;78.98
69359;HTU21D;56520;49.066;8.660;2022-10-16T14:32:57;20.00;79.18
69359;HTU21D;56520;49.066;8.660;2022-10-16T14:35:36;19.96;79.40
69359;HTU21D;56520;49.066;8.660;2022-10-16T14:38:03;19.96;79.52
69359;HTU21D;56520;49.066;8.660;2022-10-16T14:40:35;19.97;79.63
69359;HTU21D;56520;49.066;8.660;2022-10-16T14:43:02;20.03;79.58
69359;HTU21D;56520;49.066;8.660;2022-10-16T14:45:30;20.10;79.56
69359;HTU21D;56520;49.066;8.660;2022-10-16T14:48:13;20.21;79.36
69359;HTU21D;56520;49.066;8.660;2022-10-16T14:50:41;20.35;79.04
69359;HTU21D;56520;49.066;8.660;2022-10-16T14:53:11;20.45;78.73
69359;HTU21D;56520;49.066;8.660;2022-10-16T14:55:38;20.50;78.59
69359;HTU21D;56520;49.066;8.660;2022-10-16T14:58:03;20.51;78.74
69359;HTU21D;56520;49.066;8.660;2022-10-16T15:00:29;20.50;78.74
69359;HTU21D;56520;49.066;8.660;2022-10-16T15:02:55;20.53;78.81
69359;HTU21D;56520;49.066;8.660;2022-10-16T15:05:26;20.55;78.88
69359;HTU21D;56520;49.066;8.660;2022-10-16T15:07:54;20.53;78.92
69359;HTU21D;56520;49.066;8.660;2022-10-16T15:10:21;20.54;79.15
69359;HTU21D;56520;49.066;8.660;2022-10-16T15:12:47;20.54;79.38
69359;HTU21D;56520;49.066;8.660;2022-10-16T15:17:55;20.49;79.79
69359;HTU21D;56520;49.066;8.660;2022-10-16T15:20:23;20.47;79.96
69359;HTU21D;56520;49.066;8.660;2022-10-16T15:22:49;20.37;80.27
69359;HTU21D;56520;49.066;8.660;2022-10-16T15:27:59;20.19;80.92
69359;HTU21D;56520;49.066;8.660;2022-10-16T15:30:25;20.14;81.10
69359;HTU21D;56520;49.066;8.660;2022-10-16T15:32:50;20.10;81.30
69359;HTU21D;56520;49.066;8.660;2022-10-16T15:35:16;20.05;81.55
69359;HTU21D;56520;49.066;8.660;2022-10-16T15:37:41;20.00;81.81
69359;HTU21D;56520;49.066;8.660;2022-10-16T15:40:08;19.97;81.86
69359;HTU21D;56520;49.066;8.660;2022-10-16T15:42:34;19.95;81.64
69359;HTU21D;56520;49.066;8.660;2022-10-16T15:44:59;19.96;81.43
69359;HTU21D;56520;49.066;8.660;2022-10-16T15:47:25;19.95;81.33
69359;HTU21D;56520;49.066;8.660;2022-10-16T15:49:50;19.88;81.38
69359;HTU21D;56520;49.066;8.660;2022-10-16T15:52:15;19.83;81.43
69359;HTU21D;56520;49.066;8.660;2022-10-16T15:54:42;19.74;81.68
69359;HTU21D;56520;49.066;8.660;2022-10-16T15:57:08;19.67;81.94
69359;HTU21D;56520;49.066;8.660;2022-10-16T15:59:33;19.60;82.23
69359;HTU21D;56520;49.066;8.660;2022-10-16T16:01:59;19.54;82.33
69359;HTU21D;56520;49.066;8.660;2022-10-16T16:04:24;19.47;82.50
69359;HTU21D;56520;49.066;8.660;2022-10-16T16:06:49;19.42;82.84
69359;HTU21D;56520;49.066;8.660;2022-10-16T16:09:15;19.33;83.00
69359;HTU21D;56520;49.066;8.660;2022-10-16T16:11:41;19.27;83.16
69359;HTU21D;56520;49.066;8.660;2022-10-16T16:14:07;19.20;83.39
69359;HTU21D;56520;49.066;8.660;2022-10-16T16:16:35;19.13;83.76
69359;HTU21D;56520;49.066;8.660;2022-10-16T16:19:04;19.03;84.39
69359;HTU21D;56520;49.066;8.660;2022-10-16T16:21:30;18.94;84.81
69359;HTU21D;56520;49.066;8.660;2022-10-16T16:23:55;18.85;85.06
69359;HTU21D;56520;49.066;8.660;2022-10-16T16:26:26;18.77;85.32
69359;HTU21D;56520;49.066;8.660;2022-10-16T16:28:53;18.68;85.59
69359;HTU21D;56520;49.066;8.660;2022-10-16T16:31:20;18.59;85.90
69359;HTU21D;56520;49.066;8.660;2022-10-16T16:33:46;18.51;86.19
69359;HTU21D;56520;49.066;8.660;2022-10-16T16:36:11;18.42;86.29
69359;HTU21D;56520;49.066;8.660;2022-10-16T16:38:37;18.33;86.50
69359;HTU21D;56520;49.066;8.660;2022-10-16T16:41:23;18.21;86.68
69359;HTU21D;56520;49.066;8.660;2022-10-16T16:43:50;18.12;86.85
69359;HTU21D;56520;49.066;8.660;2022-10-16T16:46:19;18.02;87.05
69359;HTU21D;56520;49.066;8.660;2022-10-16T16:48:45;17.93;87.32
69359;HTU21D;56520;49.066;8.660;2022-10-16T16:51:16;17.84;87.59
69359;HTU21D;56520;49.066;8.660;2022-10-16T16:53:44;17.77;87.67
69359;HTU21D;56520;49.066;8.660;2022-10-16T16:56:09;17.70;87.72
69359;HTU21D;56520;49.066;8.660;2022-10-16T16:58:35;17.65;87.77
69359;HTU21D;56520;49.066;8.660;2022-10-16T17:01:01;17.60;87.89
69359;HTU21D;56520;49.066;8.660;2022-10-16T17:03:31;17.54;88.03
69359;HTU21D;56520;49.066;8.660;2022-10-16T17:08:27;17.41;88.25
69359;HTU21D;56520;49.066;8.660;2022-10-16T17:10:53;17.35;88.36
69359;HTU21D;56520;49.066;8.660;2022-10-16T17:13:21;17.31;88.47
69359;HTU21D;56520;49.066;8.660;2022-10-16T17:15:48;17.25;88.52